createdAt,value
2024-02-19T00:00:25.845Z,100.00
2024-02-19T00:03:28.892Z,100.00
2024-02-19T00:06:31.373Z,100.00
2024-02-19T00:09:34.262Z,100.00
2024-02-19T00:12:37.908Z,100.00
2024-02-19T00:15:40.669Z,100.00
2024-02-19T00:18:43.243Z,100.00
2024-02-19T00:21:46.014Z,100.00
2024-02-19T00:24:48.433Z,100.00
2024-02-19T00:27:51.235Z,100.00
2024-02-19T00:30:55.648Z,100.00
2024-02-19T00:33:58.580Z,100.00
2024-02-19T00:37:01.182Z,100.00
2024-02-19T00:40:06.115Z,100.00
2024-02-19T00:43:08.869Z,100.00
2024-02-19T00:46:11.719Z,100.00
2024-02-19T00:49:14.192Z,100.00
2024-02-19T00:52:17.055Z,100.00
2024-02-19T00:55:22.775Z,100.00
2024-02-19T00:58:25.540Z,100.00
2024-02-19T01:01:28.039Z,100.00
2024-02-19T01:04:30.925Z,100.00
2024-02-19T01:07:33.446Z,100.00
2024-02-19T01:10:36.072Z,100.00
2024-02-19T01:13:40.795Z,100.00
2024-02-19T01:16:43.525Z,100.00
2024-02-19T01:19:46.115Z,100.00
2024-02-19T01:22:48.938Z,100.00
2024-02-19T01:25:53.298Z,100.00
2024-02-19T01:28:56.009Z,100.00
2024-02-19T01:31:58.526Z,100.00
2024-02-19T01:35:01.396Z,100.00
2024-02-19T01:38:04.012Z,100.00
2024-02-19T01:41:06.764Z,100.00
2024-02-19T01:44:09.864Z,100.00
2024-02-19T01:47:12.659Z,100.00
2024-02-19T01:50:15.319Z,100.00
2024-02-19T01:53:18.183Z,100.00
2024-02-19T01:56:20.581Z,100.00
2024-02-19T01:59:23.800Z,100.00
2024-02-19T02:02:26.319Z,100.00
2024-02-19T02:05:29.360Z,100.00
2024-02-19T02:08:32.825Z,100.00
2024-02-19T02:11:35.679Z,100.00
2024-02-19T02:14:38.217Z,100.00
2024-02-19T02:17:45.165Z,100.00
2024-02-19T02:20:48.901Z,100.00
2024-02-19T02:23:51.925Z,100.00
2024-02-19T02:26:54.486Z,100.00
2024-02-19T02:29:57.105Z,100.00
2024-02-19T02:32:59.566Z,100.00
2024-02-19T02:36:03.583Z,100.00
2024-02-19T02:39:05.965Z,100.00
2024-02-19T02:42:08.703Z,100.00
2024-02-19T02:45:11.489Z,100.00
2024-02-19T02:48:14.640Z,100.00
2024-02-19T02:51:17.202Z,100.00
2024-02-19T02:54:19.982Z,100.00
2024-02-19T02:57:22.447Z,100.00
2024-02-19T03:00:25.085Z,100.00
2024-02-19T03:03:33.933Z,100.00
2024-02-19T03:06:36.766Z,100.00
2024-02-19T03:09:39.183Z,100.00
2024-02-19T03:12:41.900Z,100.00
2024-02-19T03:15:44.913Z,100.00
2024-02-19T03:18:47.750Z,100.00
2024-02-19T03:21:52.023Z,100.00
2024-02-19T03:24:54.970Z,100.00
2024-02-19T03:27:57.427Z,100.00
2024-02-19T03:31:00.148Z,100.00
2024-02-19T03:34:02.755Z,100.00
2024-02-19T03:37:05.613Z,100.00
2024-02-19T03:40:09.986Z,100.00
2024-02-19T03:43:13.159Z,100.00
2024-02-19T03:46:16.231Z,100.00
2024-02-19T03:49:19.277Z,100.00
2024-02-19T03:52:21.894Z,100.00
2024-02-19T03:55:24.574Z,100.00
2024-02-19T03:58:27.016Z,100.00
2024-02-19T04:01:29.757Z,100.00
2024-02-19T04:04:32.754Z,100.00
2024-02-19T04:07:35.339Z,100.00
2024-02-19T04:10:38.036Z,100.00
2024-02-19T04:13:40.380Z,100.00
2024-02-19T04:16:43.832Z,100.00
2024-02-19T04:19:46.338Z,100.00
2024-02-19T04:22:49.097Z,100.00
2024-02-19T04:25:51.502Z,100.00
2024-02-19T04:28:54.747Z,100.00
2024-02-19T04:31:57.170Z,100.00
2024-02-19T04:34:59.924Z,100.00
2024-02-19T04:38:02.364Z,100.00
2024-02-19T04:41:05.437Z,100.00
2024-02-19T04:44:07.806Z,100.00
2024-02-19T04:47:10.490Z,100.00
2024-02-19T04:50:13.236Z,100.00
2024-02-19T04:53:19.408Z,100.00
2024-02-19T04:56:21.913Z,100.00
2024-02-19T04:59:24.567Z,100.00
2024-02-19T05:02:26.938Z,100.00
2024-02-19T05:05:29.777Z,100.00
2024-02-19T05:08:32.258Z,100.00
2024-02-19T05:11:35.079Z,100.00
2024-02-19T05:14:37.502Z,100.00
2024-02-19T05:17:40.216Z,100.00
2024-02-19T05:20:42.686Z,100.00
2024-02-19T05:23:46.332Z,100.00
2024-02-19T05:26:48.767Z,100.00
2024-02-19T05:29:52.287Z,100.00
2024-02-19T05:32:54.724Z,100.00
2024-02-19T05:35:57.401Z,100.00
2024-02-19T05:39:00.588Z,100.00
2024-02-19T05:42:03.443Z,100.00
2024-02-19T05:45:06.471Z,100.00
2024-02-19T05:48:09.259Z,100.00
2024-02-19T05:51:14.568Z,100.00
2024-02-19T05:54:17.255Z,100.00
2024-02-19T05:57:19.736Z,100.00
2024-02-19T06:00:22.436Z,100.00
2024-02-19T06:03:27.284Z,100.00
2024-02-19T06:06:29.708Z,100.00
2024-02-19T06:09:32.738Z,100.00
2024-02-19T06:12:35.097Z,100.00
2024-02-19T06:15:37.739Z,100.00
2024-02-19T06:18:40.189Z,100.00
2024-02-19T06:21:43.236Z,100.00
2024-02-19T06:24:46.992Z,100.00
2024-02-19T06:27:49.747Z,100.00
2024-02-19T06:30:52.270Z,100.00
2024-02-19T06:33:56.003Z,100.00
2024-02-19T06:36:58.565Z,100.00
2024-02-19T06:40:01.287Z,100.00
2024-02-19T06:43:04.034Z,100.00
2024-02-19T06:46:06.847Z,100.00
2024-02-19T06:49:09.297Z,100.00
2024-02-19T06:52:12.151Z,100.00
2024-02-19T06:55:15.640Z,100.00
2024-02-19T06:58:18.525Z,100.00
2024-02-19T07:01:21.047Z,100.00
2024-02-19T07:04:25.132Z,100.00
2024-02-19T07:07:28.140Z,100.00
2024-02-19T07:10:30.968Z,100.00
2024-02-19T07:13:33.412Z,100.00
2024-02-19T07:16:36.143Z,100.00
2024-02-19T07:19:38.700Z,100.00
2024-02-19T07:22:41.420Z,100.00
2024-02-19T07:25:43.858Z,100.00
2024-02-19T07:28:46.833Z,100.00
2024-02-19T07:31:49.460Z,100.00
2024-02-19T07:34:52.417Z,100.00
2024-02-19T07:37:54.854Z,100.00
2024-02-19T07:40:57.746Z,100.00
2024-02-19T07:44:00.184Z,100.00
2024-02-19T07:47:05.777Z,100.00
2024-02-19T07:50:08.669Z,100.00
2024-02-19T07:53:13.070Z,100.00
2024-02-19T07:56:16.814Z,100.00
2024-02-19T07:59:21.009Z,100.00
2024-02-19T08:02:23.551Z,100.00
2024-02-19T08:05:26.406Z,100.00
2024-02-19T08:08:29.809Z,100.00
2024-02-19T08:11:33.232Z,100.00
2024-02-19T08:14:36.673Z,100.00
2024-02-19T08:17:39.862Z,100.00
2024-02-19T08:20:42.566Z,100.00
2024-02-19T08:23:45.580Z,100.00
2024-02-19T08:26:48.241Z,100.00
2024-02-19T08:29:51.328Z,100.00
2024-02-19T08:32:54.273Z,100.00
2024-02-19T08:35:57.215Z,100.00
2024-02-19T08:38:59.980Z,100.00
2024-02-19T08:42:02.793Z,100.00
2024-02-19T08:45:06.330Z,100.00
2024-02-19T08:48:09.250Z,100.00
2024-02-19T08:51:11.709Z,100.00
2024-02-19T08:54:14.575Z,100.00
2024-02-19T08:57:17.606Z,100.00
2024-02-19T09:00:20.269Z,100.00
2024-02-19T09:03:22.762Z,100.00
2024-02-19T09:06:25.602Z,100.00
2024-02-19T09:09:28.042Z,100.00
2024-02-19T09:12:31.378Z,100.00
2024-02-19T09:15:33.756Z,100.00
2024-02-19T09:18:36.829Z,100.00
2024-02-19T09:21:40.189Z,100.00
2024-02-19T09:24:45.764Z,100.00
2024-02-19T09:27:48.352Z,100.00
2024-02-19T09:30:51.730Z,100.00
2024-02-19T09:33:54.722Z,100.00
2024-02-19T09:36:57.583Z,100.00
2024-02-19T09:40:00.326Z,100.00
2024-02-19T09:43:06.047Z,100.00
2024-02-19T09:46:15.596Z,100.00
2024-02-19T09:49:19.101Z,100.00
2024-02-19T09:52:29.532Z,99.18
2024-02-19T09:55:33.353Z,100.00
2024-02-19T09:58:37.234Z,100.00
2024-02-19T10:01:41.821Z,100.00
2024-02-19T10:04:44.644Z,100.00
2024-02-19T10:07:47.333Z,100.00
2024-02-19T10:10:56.674Z,100.00
2024-02-19T10:13:59.106Z,100.00
2024-02-19T10:17:01.848Z,100.00
2024-02-19T10:20:07.942Z,100.00
2024-02-19T10:23:11.274Z,100.00
2024-02-19T10:26:14.129Z,100.00
2024-02-19T10:29:17.264Z,100.00
2024-02-19T10:32:19.677Z,100.00
2024-02-19T10:35:23.106Z,100.00
2024-02-19T10:38:25.552Z,100.00
2024-02-19T10:41:28.473Z,100.00
2024-02-19T10:44:31.164Z,100.00
2024-02-19T10:47:34.066Z,100.00
2024-02-19T10:50:38.039Z,100.00
2024-02-19T10:53:40.744Z,100.00
2024-02-19T10:56:44.666Z,100.00
2024-02-19T10:59:47.421Z,100.00
2024-02-19T11:02:49.829Z,100.00
2024-02-19T11:05:52.698Z,100.00
2024-02-19T11:08:57.195Z,100.00
2024-02-19T11:12:02.037Z,100.00
2024-02-19T11:15:18.101Z,100.00
2024-02-19T11:18:21.779Z,100.00
2024-02-19T11:21:29.381Z,100.00
2024-02-19T11:24:35.186Z,100.00
2024-02-19T11:27:37.672Z,100.00
2024-02-19T11:30:40.988Z,100.00
2024-02-19T11:33:43.565Z,100.00
2024-02-19T11:36:47.386Z,100.00
2024-02-19T11:39:49.943Z,100.00
2024-02-19T11:42:52.910Z,100.00
2024-02-19T11:45:55.541Z,100.00
2024-02-19T11:48:58.884Z,100.00
2024-02-19T11:52:11.288Z,100.00
2024-02-19T11:55:19.983Z,100.00
2024-02-19T11:58:28.239Z,100.00
2024-02-19T12:01:31.071Z,100.00
2024-02-19T12:04:38.387Z,100.00
2024-02-19T12:07:41.227Z,100.00
2024-02-19T12:10:44.334Z,100.00
2024-02-19T12:13:47.487Z,100.00
2024-02-19T12:16:51.362Z,100.00
2024-02-19T12:19:57.050Z,100.00
2024-02-19T12:23:00.088Z,100.00
2024-02-19T12:26:03.390Z,100.00
2024-02-19T12:29:07.124Z,100.00
2024-02-19T12:32:09.576Z,100.00
2024-02-19T12:35:12.427Z,100.00
2024-02-19T12:38:15.682Z,100.00
2024-02-19T12:41:18.343Z,100.00
2024-02-19T12:44:20.785Z,100.00
2024-02-19T12:47:24.996Z,100.00
2024-02-19T12:50:29.124Z,100.00
2024-02-19T12:53:32.623Z,100.00
2024-02-19T12:56:37.106Z,100.00
2024-02-19T12:59:39.882Z,100.00
2024-02-19T13:02:42.422Z,100.00
2024-02-19T13:05:45.719Z,100.00
2024-02-19T13:08:49.127Z,100.00
2024-02-19T13:11:52.057Z,100.00
2024-02-19T13:14:56.183Z,100.00
2024-02-19T13:17:58.953Z,100.00
2024-02-19T13:21:01.481Z,100.00
2024-02-19T13:24:04.337Z,100.00
2024-02-19T13:27:06.800Z,100.00
2024-02-19T13:30:10.931Z,100.00
2024-02-19T13:33:13.552Z,100.00
2024-02-19T13:36:17.537Z,100.00
2024-02-19T13:39:22.384Z,100.00
2024-02-19T13:42:25.337Z,100.00
2024-02-19T13:45:29.806Z,100.00
2024-02-19T13:48:33.090Z,100.00
2024-02-19T13:51:35.773Z,100.00
2024-02-19T13:54:38.470Z,100.00
2024-02-19T13:57:40.956Z,100.00
2024-02-19T14:00:43.940Z,100.00
2024-02-19T14:03:49.053Z,98.48
2024-02-19T14:06:51.720Z,96.89
2024-02-19T14:09:55.459Z,95.90
2024-02-19T14:12:57.848Z,94.98
2024-02-19T14:16:00.699Z,92.10
2024-02-19T14:19:04.235Z,92.80
2024-02-19T14:22:07.907Z,92.81
2024-02-19T14:25:11.287Z,94.04
2024-02-19T14:28:14.143Z,94.46
2024-02-19T14:31:17.204Z,96.35
2024-02-19T14:34:22.768Z,97.14
2024-02-19T14:37:25.597Z,97.52
2024-02-19T14:40:28.529Z,97.70
2024-02-19T14:43:31.236Z,99.01
2024-02-19T14:46:34.113Z,99.68
2024-02-19T14:49:36.954Z,99.82
2024-02-19T14:52:40.748Z,99.57
2024-02-19T14:55:43.316Z,99.65
2024-02-19T14:58:46.114Z,98.74
2024-02-19T15:01:49.048Z,98.87
2024-02-19T15:04:51.989Z,99.19
2024-02-19T15:07:55.967Z,99.05
2024-02-19T15:10:59.218Z,98.57
2024-02-19T15:14:01.666Z,98.84
2024-02-19T15:17:04.651Z,100.00
2024-02-19T15:20:07.871Z,100.00
2024-02-19T15:23:10.716Z,100.00
2024-02-19T15:26:15.906Z,100.00
2024-02-19T15:29:20.794Z,100.00
2024-02-19T15:32:23.819Z,100.00
2024-02-19T15:35:28.207Z,100.00
2024-02-19T15:38:30.625Z,100.00
2024-02-19T15:41:33.752Z,100.00
2024-02-19T15:44:36.303Z,100.00
2024-02-19T15:47:39.129Z,100.00
2024-02-19T15:50:42.823Z,100.00
2024-02-19T15:53:45.575Z,100.00
2024-02-19T15:56:47.955Z,100.00
2024-02-19T15:59:50.644Z,100.00
2024-02-19T16:02:53.149Z,100.00
2024-02-19T16:06:00.652Z,100.00
2024-02-19T16:09:03.575Z,100.00
2024-02-19T16:12:09.354Z,100.00
2024-02-19T16:15:11.880Z,100.00
2024-02-19T16:18:14.821Z,100.00
2024-02-19T16:21:17.317Z,100.00
2024-02-19T16:24:20.081Z,100.00
2024-02-19T16:27:22.560Z,100.00
2024-02-19T16:30:25.221Z,100.00
2024-02-19T16:33:28.784Z,100.00
2024-02-19T16:36:31.762Z,100.00
2024-02-19T16:39:34.335Z,100.00
2024-02-19T16:42:39.103Z,100.00
2024-02-19T16:45:41.464Z,100.00
2024-02-19T16:48:45.259Z,100.00
2024-02-19T16:51:47.939Z,100.00
2024-02-19T16:54:51.029Z,100.00
2024-02-19T16:57:53.502Z,100.00
2024-02-19T17:00:58.805Z,100.00
2024-02-19T17:04:01.951Z,100.00
2024-02-19T17:07:06.173Z,100.00
2024-02-19T17:10:11.257Z,100.00
2024-02-19T17:13:16.657Z,100.00
2024-02-19T17:16:19.250Z,100.00
2024-02-19T17:19:22.155Z,100.00
2024-02-19T17:22:24.667Z,100.00
2024-02-19T17:25:28.947Z,100.00
2024-02-19T17:28:31.414Z,100.00
2024-02-19T17:31:35.188Z,100.00
2024-02-19T17:34:42.532Z,100.00
2024-02-19T17:37:45.292Z,100.00
2024-02-19T17:40:47.699Z,100.00
2024-02-19T17:43:50.476Z,100.00
2024-02-19T17:46:55.303Z,100.00
2024-02-19T17:49:58.197Z,100.00
2024-02-19T17:53:00.660Z,100.00
2024-02-19T17:56:03.479Z,100.00
2024-02-19T17:59:08.180Z,100.00
2024-02-19T18:02:13.858Z,100.00
2024-02-19T18:05:16.921Z,100.00
2024-02-19T18:08:19.317Z,100.00
2024-02-19T18:11:22.018Z,100.00
2024-02-19T18:14:28.999Z,100.00
2024-02-19T18:17:32.060Z,100.00
2024-02-19T18:20:34.620Z,100.00
2024-02-19T18:23:37.657Z,100.00
2024-02-19T18:26:40.851Z,100.00
2024-02-19T18:29:43.885Z,100.00
2024-02-19T18:32:46.311Z,100.00
2024-02-19T18:35:49.133Z,100.00
2024-02-19T18:38:51.605Z,100.00
2024-02-19T18:41:54.317Z,100.00
2024-02-19T18:44:57.491Z,100.00
2024-02-19T18:48:01.745Z,100.00
2024-02-19T18:51:05.379Z,100.00
2024-02-19T18:54:08.650Z,100.00
2024-02-19T18:57:11.420Z,100.00
2024-02-19T19:00:14.786Z,100.00
2024-02-19T19:03:17.573Z,100.00
2024-02-19T19:06:23.598Z,100.00
2024-02-19T19:09:26.176Z,100.00
2024-02-19T19:12:28.892Z,100.00
2024-02-19T19:15:31.414Z,100.00
2024-02-19T19:18:35.075Z,100.00
2024-02-19T19:21:40.993Z,100.00
2024-02-19T19:24:46.922Z,100.00
2024-02-19T19:27:49.478Z,100.00
2024-02-19T19:30:52.292Z,100.00
2024-02-19T19:33:54.934Z,100.00
2024-02-19T19:36:58.054Z,100.00
2024-02-19T19:40:02.119Z,100.00
2024-02-19T19:43:05.209Z,100.00
2024-02-19T19:46:08.286Z,100.00
2024-02-19T19:49:12.865Z,100.00
2024-02-19T19:52:17.584Z,100.00
2024-02-19T19:55:20.347Z,100.00
2024-02-19T19:58:31.217Z,100.00
2024-02-19T20:01:36.710Z,100.00
2024-02-19T20:04:39.613Z,100.00
2024-02-19T20:07:42.786Z,100.00
2024-02-19T20:10:45.748Z,100.00
2024-02-19T20:13:48.287Z,100.00
2024-02-19T20:16:51.010Z,100.00
2024-02-19T20:19:53.478Z,100.00
2024-02-19T20:22:56.193Z,100.00
2024-02-19T20:25:58.998Z,100.00
2024-02-19T20:29:01.763Z,100.00
2024-02-19T20:32:07.133Z,100.00
2024-02-19T20:35:10.132Z,100.00
2024-02-19T20:38:12.708Z,100.00
2024-02-19T20:41:15.406Z,100.00
2024-02-19T20:44:17.798Z,100.00
2024-02-19T20:47:20.495Z,100.00
2024-02-19T20:50:23.041Z,100.00
2024-02-19T20:53:25.839Z,100.00
2024-02-19T20:56:28.293Z,100.00
2024-02-19T20:59:33.190Z,100.00
2024-02-19T21:02:41.960Z,100.00
2024-02-19T21:05:44.792Z,100.00
2024-02-19T21:08:47.274Z,100.00
2024-02-19T21:11:49.991Z,100.00
2024-02-19T21:14:52.464Z,100.00
2024-02-19T21:17:55.407Z,100.00
2024-02-19T21:20:57.910Z,100.00
2024-02-19T21:24:00.615Z,100.00
2024-02-19T21:27:03.524Z,100.00
2024-02-19T21:30:07.664Z,100.00
2024-02-19T21:33:10.467Z,100.00
2024-02-19T21:36:13.477Z,100.00
2024-02-19T21:39:17.416Z,100.00
2024-02-19T21:42:23.337Z,100.00
2024-02-19T21:45:27.978Z,100.00
2024-02-19T21:48:30.806Z,100.00
2024-02-19T21:51:33.301Z,100.00
2024-02-19T21:54:36.061Z,100.00
2024-02-19T21:57:39.099Z,100.00
2024-02-19T22:00:43.379Z,100.00
2024-02-19T22:03:50.454Z,100.00
2024-02-19T22:06:53.170Z,100.00
2024-02-19T22:09:55.967Z,100.00
2024-02-19T22:13:01.407Z,100.00
2024-02-19T22:16:05.034Z,100.00
2024-02-19T22:19:07.574Z,100.00
2024-02-19T22:22:10.284Z,100.00
2024-02-19T22:25:16.496Z,100.00
2024-02-19T22:28:19.340Z,100.00
2024-02-19T22:31:21.824Z,100.00
2024-02-19T22:34:24.631Z,100.00
2024-02-19T22:37:27.520Z,100.00
2024-02-19T22:40:32.912Z,100.00
2024-02-19T22:43:35.598Z,100.00
2024-02-19T22:46:38.521Z,100.00
2024-02-19T22:49:41.244Z,100.00
2024-02-19T22:52:44.861Z,100.00
2024-02-19T22:55:48.723Z,100.00
2024-02-19T22:58:51.521Z,100.00
2024-02-19T23:01:54.667Z,100.00
2024-02-19T23:04:57.499Z,100.00
2024-02-19T23:08:00.587Z,100.00
2024-02-19T23:11:03.400Z,100.00
2024-02-19T23:14:05.998Z,100.00
2024-02-19T23:17:08.672Z,100.00
2024-02-19T23:20:11.689Z,100.00
2024-02-19T23:23:14.543Z,100.00
2024-02-19T23:26:16.913Z,100.00
2024-02-19T23:29:19.642Z,100.00
2024-02-19T23:32:22.140Z,100.00
2024-02-19T23:35:27.105Z,100.00
2024-02-19T23:38:29.844Z,100.00
2024-02-19T23:41:32.569Z,100.00
2024-02-19T23:44:34.916Z,100.00
2024-02-19T23:47:41.701Z,100.00
2024-02-19T23:50:44.202Z,100.00
2024-02-19T23:53:47.652Z,100.00
2024-02-19T23:56:50.670Z,100.00
2024-02-19T23:59:53.285Z,100.00
